createdAt,value
2022-10-30T00:00:04.948Z,10.70
2022-10-30T00:00:27.663Z,10.60
2022-10-30T00:00:50.463Z,10.70
2022-10-30T00:01:13.264Z,10.60
2022-10-30T00:01:37.569Z,10.70
2022-10-30T00:02:00.439Z,10.70
2022-10-30T00:02:23.575Z,10.70
2022-10-30T00:02:47.248Z,10.70
2022-10-30T00:03:12.854Z,10.60
2022-10-30T00:03:35.708Z,10.60
2022-10-30T00:03:58.468Z,10.60
2022-10-30T00:04:21.225Z,10.60
2022-10-30T00:04:43.994Z,10.60
2022-10-30T00:05:07.399Z,10.60
2022-10-30T00:05:30.057Z,10.60
2022-10-30T00:05:52.941Z,10.60
2022-10-30T00:06:43.362Z,10.60
2022-10-30T00:07:06.089Z,10.60
2022-10-30T00:07:28.809Z,10.60
2022-10-30T00:07:51.733Z,10.60
2022-10-30T00:08:15.389Z,10.50
2022-10-30T00:08:38.178Z,10.50
2022-10-30T00:09:01.009Z,10.60
2022-10-30T00:09:23.703Z,10.60
2022-10-30T00:09:46.442Z,10.50
2022-10-30T00:10:10.088Z,10.60
2022-10-30T00:10:32.767Z,10.60
2022-10-30T00:10:55.612Z,10.50
2022-10-30T00:11:18.397Z,10.50
2022-10-30T00:11:41.603Z,10.50
2022-10-30T00:12:04.808Z,10.50
2022-10-30T00:12:27.578Z,10.50
2022-10-30T00:12:50.345Z,10.50
2022-10-30T00:13:13.534Z,10.50
2022-10-30T00:13:36.324Z,10.50
2022-10-30T00:13:59.049Z,10.50
2022-10-30T00:14:21.728Z,10.50
2022-10-30T00:14:44.628Z,10.50
2022-10-30T00:15:08.629Z,10.50
2022-10-30T00:15:31.357Z,10.50
2022-10-30T00:15:54.437Z,10.50
2022-10-30T00:16:17.192Z,10.50
2022-10-30T00:16:41.423Z,10.50
2022-10-30T00:17:04.158Z,10.50
2022-10-30T00:17:27.053Z,10.50
2022-10-30T00:17:49.842Z,10.50
2022-10-30T00:18:12.573Z,10.50
2022-10-30T00:18:35.999Z,10.50
2022-10-30T00:18:58.756Z,10.50
2022-10-30T00:19:21.438Z,10.50
2022-10-30T00:19:44.250Z,10.50
2022-10-30T00:20:08.182Z,10.50
2022-10-30T00:20:30.873Z,10.50
2022-10-30T00:20:53.741Z,10.50
2022-10-30T00:21:17.298Z,10.50
2022-10-30T00:21:40.026Z,10.50
2022-10-30T00:22:24.562Z,10.50
2022-10-30T00:22:47.243Z,10.50
2022-10-30T00:23:10.031Z,10.50
2022-10-30T00:23:33.286Z,10.50
2022-10-30T00:23:56.155Z,10.50
2022-10-30T00:24:19.056Z,10.50
2022-10-30T00:24:41.810Z,10.50
2022-10-30T00:25:04.868Z,10.50
2022-10-30T00:25:27.671Z,10.50
2022-10-30T00:25:50.392Z,10.50
2022-10-30T00:26:14.629Z,10.50
2022-10-30T00:26:37.361Z,10.50
2022-10-30T00:27:00.094Z,10.50
2022-10-30T00:27:22.821Z,10.50
2022-10-30T00:27:45.766Z,10.50
2022-10-30T00:28:08.664Z,10.50
2022-10-30T00:28:31.544Z,10.50
2022-10-30T00:28:55.366Z,10.50
2022-10-30T00:29:18.092Z,10.50
2022-10-30T00:29:41.928Z,10.50
2022-10-30T00:30:06.452Z,10.50
2022-10-30T00:30:29.193Z,10.50
2022-10-30T00:30:51.912Z,10.50
2022-10-30T00:31:14.727Z,10.50
2022-10-30T00:31:37.478Z,10.50
2022-10-30T00:32:01.778Z,10.50
2022-10-30T00:32:24.538Z,10.50
2022-10-30T00:32:47.319Z,10.50
2022-10-30T00:33:10.181Z,10.50
2022-10-30T00:33:33.086Z,10.50
2022-10-30T00:33:55.848Z,10.50
2022-10-30T00:34:18.796Z,10.50
2022-10-30T00:34:41.558Z,10.50
2022-10-30T00:35:04.687Z,10.60
2022-10-30T00:35:27.474Z,10.50
2022-10-30T00:35:51.264Z,10.50
2022-10-30T00:36:13.999Z,10.50
2022-10-30T00:36:36.675Z,10.60
2022-10-30T00:36:59.495Z,10.50
2022-10-30T00:37:22.242Z,10.60
2022-10-30T00:37:45.148Z,10.60
2022-10-30T00:38:07.846Z,10.60
2022-10-30T00:38:30.558Z,10.60
2022-10-30T00:38:54.358Z,10.60
2022-10-30T00:39:17.203Z,10.60
2022-10-30T00:39:39.962Z,10.50
2022-10-30T00:40:02.792Z,10.60
2022-10-30T00:40:25.602Z,10.60
2022-10-30T00:40:48.688Z,10.60
2022-10-30T00:41:14.652Z,10.60
2022-10-30T00:41:39.681Z,10.60
2022-10-30T00:42:02.536Z,10.60
2022-10-30T00:42:29.437Z,10.60
2022-10-30T00:42:52.322Z,10.60
2022-10-30T00:43:32.978Z,10.60
2022-10-30T00:43:55.778Z,10.60
2022-10-30T00:44:36.812Z,10.60
2022-10-30T00:44:59.542Z,10.60
2022-10-30T00:45:22.397Z,10.70
2022-10-30T00:45:45.113Z,10.70
2022-10-30T00:46:16.696Z,10.70
2022-10-30T00:46:39.852Z,10.70
2022-10-30T00:47:06.079Z,10.70
2022-10-30T00:47:30.563Z,10.70
2022-10-30T00:47:54.029Z,10.70
2022-10-30T00:48:16.838Z,10.70
2022-10-30T00:48:39.553Z,10.70
2022-10-30T00:49:04.392Z,10.80
2022-10-30T00:49:27.104Z,10.80
2022-10-30T00:49:53.295Z,10.80
2022-10-30T00:50:17.928Z,10.80
2022-10-30T00:50:40.792Z,10.70
2022-10-30T00:51:03.613Z,10.70
2022-10-30T00:51:26.338Z,10.70
2022-10-30T00:51:50.197Z,10.70
2022-10-30T00:52:12.957Z,10.80
2022-10-30T00:52:41.015Z,10.70
2022-10-30T00:53:10.046Z,10.80
2022-10-30T00:53:32.779Z,10.80
2022-10-30T00:53:55.675Z,10.80
2022-10-30T00:54:18.717Z,10.80
2022-10-30T00:54:41.444Z,10.80
2022-10-30T00:55:06.558Z,10.80
2022-10-30T00:55:32.167Z,10.80
2022-10-30T00:55:56.299Z,10.80
2022-10-30T00:56:20.199Z,10.80
2022-10-30T00:56:44.024Z,10.80
2022-10-30T00:57:06.974Z,10.80
2022-10-30T00:57:29.769Z,10.80
2022-10-30T00:57:53.463Z,10.80
2022-10-30T00:58:17.572Z,10.80
2022-10-30T00:58:41.758Z,10.80
2022-10-30T00:59:06.918Z,10.80
2022-10-30T00:59:31.183Z,10.80
2022-10-30T00:59:53.928Z,10.80
2022-10-30T01:00:17.115Z,10.80
2022-10-30T01:00:40.749Z,10.80
2022-10-30T01:01:04.719Z,10.80
2022-10-30T01:01:27.640Z,10.80
2022-10-30T01:01:51.287Z,10.80
2022-10-30T01:02:15.952Z,10.80
2022-10-30T01:02:39.200Z,10.80
2022-10-30T01:03:02.134Z,10.80
2022-10-30T01:03:25.112Z,10.80
2022-10-30T01:03:49.201Z,10.80
2022-10-30T01:04:12.072Z,10.80
2022-10-30T01:04:35.522Z,10.80
2022-10-30T01:04:58.311Z,10.70
2022-10-30T01:05:21.937Z,10.70
2022-10-30T01:05:44.748Z,10.70
2022-10-30T01:06:09.587Z,10.80
2022-10-30T01:06:32.951Z,10.70
2022-10-30T01:06:55.711Z,10.70
2022-10-30T01:07:18.490Z,10.80
2022-10-30T01:07:41.280Z,10.70
2022-10-30T01:08:04.064Z,10.70
2022-10-30T01:08:26.820Z,10.70
2022-10-30T01:08:51.606Z,10.80
2022-10-30T01:09:16.738Z,10.80
2022-10-30T01:09:39.548Z,10.70
2022-10-30T01:10:02.210Z,10.80
2022-10-30T01:10:25.125Z,10.80
2022-10-30T01:10:48.398Z,10.80
2022-10-30T01:11:11.083Z,10.80
2022-10-30T01:11:33.755Z,10.80
2022-10-30T01:11:58.317Z,10.80
2022-10-30T01:12:21.120Z,10.80
2022-10-30T01:12:44.354Z,10.80
2022-10-30T01:13:07.074Z,10.80
2022-10-30T01:13:29.810Z,10.80
2022-10-30T01:13:52.835Z,10.80
2022-10-30T01:14:16.690Z,10.80
2022-10-30T01:14:40.476Z,10.80
2022-10-30T01:15:03.349Z,10.80
2022-10-30T01:15:28.989Z,10.80
2022-10-30T01:16:04.810Z,10.80
2022-10-30T01:16:49.915Z,10.80
2022-10-30T01:17:31.565Z,10.80
2022-10-30T01:18:14.068Z,10.80
2022-10-30T01:18:41.955Z,10.80
2022-10-30T01:19:07.916Z,10.80
2022-10-30T01:19:38.565Z,10.80
2022-10-30T01:20:08.708Z,10.80
2022-10-30T01:20:58.235Z,10.80
2022-10-30T01:21:38.562Z,10.80
2022-10-30T01:22:15.046Z,10.80
2022-10-30T01:22:44.473Z,10.80
2022-10-30T01:23:13.989Z,10.80
2022-10-30T01:23:43.364Z,10.80
2022-10-30T01:24:14.430Z,10.80
2022-10-30T01:24:43.809Z,10.70
2022-10-30T01:25:12.304Z,10.80
2022-10-30T01:25:44.005Z,10.80
2022-10-30T01:26:12.443Z,10.70
2022-10-30T01:26:41.349Z,10.70
2022-10-30T01:27:12.046Z,10.80
2022-10-30T01:27:40.188Z,10.80
2022-10-30T01:28:10.018Z,10.80
2022-10-30T01:28:50.241Z,10.80
2022-10-30T01:29:22.496Z,10.80
2022-10-30T01:29:51.220Z,10.80
2022-10-30T01:30:20.805Z,10.80
2022-10-30T01:30:51.590Z,10.70
2022-10-30T01:31:20.191Z,10.70
2022-10-30T01:31:49.827Z,10.70
2022-10-30T01:32:28.040Z,10.70
2022-10-30T01:33:00.210Z,10.70
2022-10-30T01:33:28.946Z,10.70
2022-10-30T01:33:59.997Z,10.70
2022-10-30T01:34:25.991Z,10.70
2022-10-30T01:34:52.740Z,10.70
2022-10-30T01:35:17.547Z,10.70
2022-10-30T01:35:44.082Z,10.60
2022-10-30T01:36:10.082Z,10.60
2022-10-30T01:36:36.488Z,10.60
2022-10-30T01:37:03.567Z,10.60
2022-10-30T01:37:29.055Z,10.60
2022-10-30T01:37:55.109Z,10.60
2022-10-30T01:38:19.848Z,10.60
2022-10-30T01:38:44.659Z,10.60
2022-10-30T01:39:10.768Z,10.60
2022-10-30T01:39:34.292Z,10.60
2022-10-30T01:39:57.199Z,10.60
2022-10-30T01:40:21.425Z,10.60
2022-10-30T01:40:44.260Z,10.60
2022-10-30T01:41:07.052Z,10.60
2022-10-30T01:41:29.752Z,10.60
2022-10-30T01:41:52.559Z,10.60
2022-10-30T01:42:46.552Z,10.60
2022-10-30T01:43:09.372Z,10.60
2022-10-30T01:43:32.259Z,10.60
2022-10-30T01:43:56.484Z,10.60
2022-10-30T01:44:20.501Z,10.60
2022-10-30T01:44:43.440Z,10.60
2022-10-30T01:45:07.060Z,10.60
2022-10-30T01:45:47.452Z,10.60
2022-10-30T01:46:32.327Z,10.60
2022-10-30T01:47:04.461Z,10.60
2022-10-30T01:47:31.602Z,10.50
2022-10-30T01:48:20.015Z,10.60
2022-10-30T01:48:54.246Z,10.50
2022-10-30T01:49:28.850Z,10.50
2022-10-30T01:50:04.093Z,10.50
2022-10-30T01:50:31.782Z,10.60
2022-10-30T01:50:57.037Z,10.60
2022-10-30T01:51:22.784Z,10.50
2022-10-30T01:51:51.839Z,10.50
2022-10-30T01:52:17.585Z,10.50
2022-10-30T01:52:43.855Z,10.40
2022-10-30T01:53:11.057Z,10.50
2022-10-30T01:53:41.915Z,10.50
2022-10-30T01:54:09.312Z,10.40
2022-10-30T01:54:37.509Z,10.50
2022-10-30T01:55:03.080Z,10.50
2022-10-30T01:55:33.489Z,10.40
2022-10-30T01:55:58.182Z,10.40
2022-10-30T01:56:26.963Z,10.40
2022-10-30T01:56:56.208Z,10.40
2022-10-30T01:57:23.539Z,10.40
2022-10-30T01:57:50.212Z,10.40
2022-10-30T01:58:16.341Z,10.40
2022-10-30T01:58:43.832Z,10.40
2022-10-30T01:59:09.387Z,10.40
2022-10-30T01:59:33.966Z,10.40
2022-10-30T02:00:00.034Z,10.30
2022-10-30T02:00:22.814Z,10.40
2022-10-30T02:00:46.175Z,10.40
2022-10-30T02:01:08.967Z,10.40
2022-10-30T02:01:33.407Z,10.40
2022-10-30T02:01:56.423Z,10.40
2022-10-30T02:02:19.615Z,10.40
2022-10-30T02:02:43.965Z,10.40
2022-10-30T02:03:06.835Z,10.40
2022-10-30T02:03:29.591Z,10.40
2022-10-30T02:03:52.399Z,10.40
2022-10-30T02:04:15.211Z,10.40
2022-10-30T02:04:38.211Z,10.40
2022-10-30T02:05:01.026Z,10.40
2022-10-30T02:05:28.386Z,10.40
2022-10-30T02:05:52.105Z,10.40
2022-10-30T02:06:14.871Z,10.40
2022-10-30T02:06:37.745Z,10.50
2022-10-30T02:07:00.474Z,10.50
2022-10-30T02:07:23.305Z,10.50
2022-10-30T02:07:46.126Z,10.40
2022-10-30T02:08:08.895Z,10.50
2022-10-30T02:08:31.657Z,10.50
2022-10-30T02:08:56.093Z,10.50
2022-10-30T02:09:18.791Z,10.60
2022-10-30T02:09:41.740Z,10.50
2022-10-30T02:10:04.867Z,10.50
2022-10-30T02:10:27.989Z,10.50
2022-10-30T02:10:51.590Z,10.60
2022-10-30T02:11:14.400Z,10.50
2022-10-30T02:11:37.124Z,10.50
2022-10-30T02:11:59.809Z,10.50
2022-10-30T02:12:22.624Z,10.60
2022-10-30T02:12:45.419Z,10.60
2022-10-30T02:13:08.176Z,10.50
2022-10-30T02:13:31.079Z,10.50
2022-10-30T02:13:54.559Z,10.50
2022-10-30T02:14:19.496Z,10.50
2022-10-30T02:14:43.899Z,10.50
2022-10-30T02:15:07.904Z,10.50
2022-10-30T02:15:30.900Z,10.50
2022-10-30T02:15:53.604Z,10.50
2022-10-30T02:16:16.389Z,10.60
2022-10-30T02:16:43.066Z,10.50
2022-10-30T02:17:08.648Z,10.50
2022-10-30T02:17:31.676Z,10.50
2022-10-30T02:17:57.121Z,10.50
2022-10-30T02:18:20.162Z,10.50
2022-10-30T02:18:43.075Z,10.50
2022-10-30T02:19:08.644Z,10.40
2022-10-30T02:19:31.369Z,10.50
2022-10-30T02:19:54.069Z,10.50
2022-10-30T02:20:18.540Z,10.50
2022-10-30T02:20:41.270Z,10.50
2022-10-30T02:21:04.155Z,10.40
2022-10-30T02:21:27.524Z,10.40
2022-10-30T02:21:50.726Z,10.50
2022-10-30T02:22:13.597Z,10.50
2022-10-30T02:22:36.434Z,10.50
2022-10-30T02:22:59.737Z,10.40
2022-10-30T02:23:22.776Z,10.40
2022-10-30T02:23:45.709Z,10.40
2022-10-30T02:24:08.567Z,10.30
2022-10-30T02:24:33.313Z,10.30
2022-10-30T02:24:56.078Z,10.30
2022-10-30T02:25:19.213Z,10.30
2022-10-30T02:25:42.067Z,10.30
2022-10-30T02:26:05.189Z,10.30
2022-10-30T02:26:28.073Z,10.30
2022-10-30T02:26:50.936Z,10.30
2022-10-30T02:27:13.725Z,10.30
2022-10-30T02:27:36.578Z,10.30
2022-10-30T02:27:59.914Z,10.30
2022-10-30T02:28:22.596Z,10.20
2022-10-30T02:28:45.298Z,10.30
2022-10-30T02:29:08.088Z,10.30
2022-10-30T02:29:30.758Z,10.30
2022-10-30T02:29:53.463Z,10.30
2022-10-30T02:30:16.248Z,10.30
2022-10-30T02:30:39.219Z,10.30
2022-10-30T02:31:02.338Z,10.30
2022-10-30T02:31:25.232Z,10.30
2022-10-30T02:31:47.988Z,10.20
2022-10-30T02:32:10.754Z,10.20
2022-10-30T02:32:33.523Z,10.20
2022-10-30T02:32:56.716Z,10.20
2022-10-30T02:33:19.656Z,10.20
2022-10-30T02:33:45.121Z,10.20
2022-10-30T02:34:07.849Z,10.20
2022-10-30T02:34:31.578Z,10.10
2022-10-30T02:34:54.245Z,10.10
2022-10-30T02:35:18.457Z,10.10
2022-10-30T02:35:41.220Z,10.10
2022-10-30T02:36:04.333Z,10.10
2022-10-30T02:36:27.258Z,10.10
2022-10-30T02:36:50.063Z,10.10
2022-10-30T02:37:12.812Z,10.10
2022-10-30T02:37:36.233Z,10.10
2022-10-30T02:37:59.330Z,10.10
2022-10-30T02:38:22.323Z,10.10
2022-10-30T02:38:45.102Z,10.10
2022-10-30T02:39:08.053Z,10.10
2022-10-30T02:39:30.780Z,10.10
2022-10-30T02:39:53.605Z,10.20
2022-10-30T02:40:16.517Z,10.20
2022-10-30T02:40:39.296Z,10.20
2022-10-30T02:41:02.151Z,10.20
2022-10-30T02:41:27.532Z,10.20
2022-10-30T02:41:50.363Z,10.20
2022-10-30T02:42:13.277Z,10.30
2022-10-30T02:42:36.139Z,10.30
2022-10-30T02:42:59.686Z,10.30
2022-10-30T02:43:22.449Z,10.30
2022-10-30T02:43:45.384Z,10.30
2022-10-30T02:44:08.231Z,10.40
2022-10-30T02:44:30.914Z,10.30
2022-10-30T02:44:53.596Z,10.40
2022-10-30T02:45:16.464Z,10.40
2022-10-30T02:45:39.256Z,10.30
2022-10-30T02:46:02.033Z,10.40
2022-10-30T02:46:24.730Z,10.30
2022-10-30T02:46:47.530Z,10.30
2022-10-30T02:47:10.310Z,10.30
2022-10-30T02:47:34.254Z,10.30
2022-10-30T02:47:57.458Z,10.30
2022-10-30T02:48:20.638Z,10.30
2022-10-30T02:48:43.401Z,10.30
2022-10-30T02:49:06.325Z,10.30
2022-10-30T02:49:29.126Z,10.30
2022-10-30T02:49:54.690Z,10.30
2022-10-30T02:50:18.809Z,10.30
2022-10-30T02:50:41.587Z,10.30
2022-10-30T02:51:04.400Z,10.40
2022-10-30T02:51:27.076Z,10.40
2022-10-30T02:51:49.927Z,10.30
2022-10-30T02:52:12.647Z,10.30
2022-10-30T02:52:35.415Z,10.30
2022-10-30T02:52:59.534Z,10.30
2022-10-30T02:53:22.861Z,10.30
2022-10-30T02:53:45.847Z,10.20
2022-10-30T02:54:08.751Z,10.20
2022-10-30T02:54:31.512Z,10.20
2022-10-30T02:54:57.236Z,10.20
2022-10-30T02:55:20.096Z,10.10
2022-10-30T02:55:42.882Z,10.10
2022-10-30T02:56:06.412Z,10.10
2022-10-30T02:56:30.537Z,10.10
2022-10-30T02:56:53.281Z,10.10
2022-10-30T02:57:16.031Z,10.10
2022-10-30T02:57:38.721Z,10.00
2022-10-30T02:58:01.453Z,10.10
2022-10-30T02:58:24.160Z,10.00
2022-10-30T02:58:47.278Z,10.00
2022-10-30T02:59:10.239Z,10.00
2022-10-30T02:59:32.993Z,10.00
2022-10-30T02:59:55.738Z,10.00
2022-10-30T03:00:18.733Z,10.00
2022-10-30T03:00:41.494Z,10.00
2022-10-30T03:01:08.691Z,10.00
2022-10-30T03:01:31.461Z,10.00
2022-10-30T03:01:55.668Z,10.00
2022-10-30T03:02:19.247Z,10.10
2022-10-30T03:02:42.008Z,10.10
2022-10-30T03:03:04.798Z,10.10
2022-10-30T03:03:27.476Z,10.10
2022-10-30T03:03:51.208Z,10.10
2022-10-30T03:04:14.079Z,10.10
2022-10-30T03:04:36.874Z,10.10
2022-10-30T03:04:59.663Z,10.20
2022-10-30T03:05:23.897Z,10.20
2022-10-30T03:05:46.712Z,10.20
2022-10-30T03:06:10.587Z,10.10
2022-10-30T03:06:34.398Z,10.20
2022-10-30T03:06:57.228Z,10.20
2022-10-30T03:07:20.082Z,10.20
2022-10-30T03:07:43.843Z,10.10
2022-10-30T03:08:06.846Z,10.10
2022-10-30T03:08:30.243Z,10.10
2022-10-30T03:08:52.958Z,10.10
2022-10-30T03:09:15.678Z,10.10
2022-10-30T03:09:38.416Z,10.10
2022-10-30T03:10:01.123Z,10.10
2022-10-30T03:10:23.837Z,10.10
2022-10-30T03:10:46.584Z,10.10
2022-10-30T03:11:13.772Z,10.20
2022-10-30T03:11:36.516Z,10.20
2022-10-30T03:11:59.289Z,10.20
2022-10-30T03:12:25.152Z,10.20
2022-10-30T03:12:47.905Z,10.20
2022-10-30T03:13:10.740Z,10.20
2022-10-30T03:13:34.523Z,10.20
2022-10-30T03:13:57.277Z,10.20
2022-10-30T03:14:20.024Z,10.20
2022-10-30T03:14:42.729Z,10.10
2022-10-30T03:15:06.903Z,10.10
2022-10-30T03:15:29.707Z,10.10
2022-10-30T03:15:52.487Z,10.10
2022-10-30T03:16:16.683Z,10.10
2022-10-30T03:16:40.550Z,10.10
2022-10-30T03:17:03.687Z,10.10
2022-10-30T03:17:27.637Z,10.10
2022-10-30T03:17:52.930Z,10.20
2022-10-30T03:18:15.871Z,10.20
2022-10-30T03:18:38.576Z,10.10
2022-10-30T03:19:01.535Z,10.20
2022-10-30T03:19:24.331Z,10.10
2022-10-30T03:19:47.061Z,10.10
2022-10-30T03:20:11.381Z,10.10
2022-10-30T03:20:35.609Z,10.10
2022-10-30T03:20:59.186Z,10.10
2022-10-30T03:21:23.046Z,10.10
2022-10-30T03:21:45.782Z,10.10
2022-10-30T03:22:08.492Z,10.10
2022-10-30T03:22:31.256Z,10.00
2022-10-30T03:22:54.101Z,10.10
2022-10-30T03:23:16.795Z,10.10
2022-10-30T03:23:39.510Z,10.10
2022-10-30T03:24:02.397Z,10.10
2022-10-30T03:24:26.246Z,10.10
2022-10-30T03:24:49.077Z,10.10
2022-10-30T03:25:11.833Z,10.10
2022-10-30T03:25:34.572Z,10.10
2022-10-30T03:25:58.143Z,10.00
2022-10-30T03:26:20.968Z,10.10
2022-10-30T03:26:44.916Z,10.00
2022-10-30T03:27:07.683Z,10.10
2022-10-30T03:27:30.627Z,10.10
2022-10-30T03:27:56.296Z,10.10
2022-10-30T03:28:19.358Z,10.10
2022-10-30T03:28:42.088Z,10.00
2022-10-30T03:29:05.126Z,10.00
2022-10-30T03:29:28.855Z,10.00
2022-10-30T03:29:51.608Z,10.00
2022-10-30T03:30:14.516Z,10.00
2022-10-30T03:30:40.016Z,10.00
2022-10-30T03:31:04.006Z,10.00
2022-10-30T03:31:26.768Z,9.90
2022-10-30T03:31:49.576Z,9.90
2022-10-30T03:32:13.121Z,10.00
2022-10-30T03:32:36.242Z,10.00
2022-10-30T03:32:59.166Z,10.00
2022-10-30T03:33:22.186Z,10.00
2022-10-30T03:33:44.930Z,10.00
2022-10-30T03:34:07.848Z,10.00
2022-10-30T03:34:30.587Z,10.00
2022-10-30T03:34:53.360Z,10.00
2022-10-30T03:35:16.199Z,10.00
2022-10-30T03:35:40.340Z,10.00
2022-10-30T03:36:03.077Z,10.00
2022-10-30T03:36:25.936Z,10.00
2022-10-30T03:36:48.826Z,10.00
2022-10-30T03:37:11.532Z,10.00
2022-10-30T03:37:34.441Z,9.90
2022-10-30T03:37:57.316Z,9.90
2022-10-30T03:38:20.110Z,10.00
2022-10-30T03:38:43.127Z,10.00
2022-10-30T03:39:05.851Z,9.90
2022-10-30T03:39:28.627Z,10.00
2022-10-30T03:39:51.316Z,10.00
2022-10-30T03:40:14.088Z,10.00
2022-10-30T03:40:36.920Z,9.90
2022-10-30T03:40:59.688Z,9.90
2022-10-30T03:41:22.445Z,9.90
2022-10-30T03:41:45.202Z,9.90
2022-10-30T03:42:07.998Z,9.90
2022-10-30T03:42:30.731Z,9.90
2022-10-30T03:42:53.441Z,9.90
2022-10-30T03:43:17.720Z,9.80
2022-10-30T03:43:40.379Z,9.80
2022-10-30T03:44:03.221Z,9.80
2022-10-30T03:44:25.856Z,9.80
2022-10-30T03:44:48.589Z,9.80
2022-10-30T03:45:11.535Z,9.80
2022-10-30T03:45:34.321Z,9.70
2022-10-30T03:45:57.306Z,9.80
2022-10-30T03:46:20.107Z,9.70
2022-10-30T03:46:42.763Z,9.80
2022-10-30T03:47:05.759Z,9.80
2022-10-30T03:47:28.601Z,9.80
2022-10-30T03:47:51.272Z,9.80
2022-10-30T03:48:13.984Z,9.80
2022-10-30T03:48:36.737Z,9.70
2022-10-30T03:48:59.626Z,9.70
2022-10-30T03:49:22.332Z,9.70
2022-10-30T03:49:45.062Z,9.70
2022-10-30T03:50:08.443Z,9.70
2022-10-30T03:50:31.150Z,9.70
2022-10-30T03:50:55.330Z,9.70
2022-10-30T03:51:18.158Z,9.70
2022-10-30T03:51:40.898Z,9.70
2022-10-30T03:52:03.762Z,9.70
2022-10-30T03:52:27.405Z,9.70
2022-10-30T03:52:50.162Z,9.70
2022-10-30T03:53:12.798Z,9.70
2022-10-30T03:53:35.672Z,9.70
2022-10-30T03:53:58.587Z,9.70
2022-10-30T03:54:21.278Z,9.70
2022-10-30T03:54:44.092Z,9.70
2022-10-30T03:55:08.475Z,9.80
2022-10-30T03:55:31.276Z,9.80
2022-10-30T03:55:57.099Z,9.80
2022-10-30T03:56:20.009Z,9.70
2022-10-30T03:56:42.726Z,9.80
2022-10-30T03:57:05.445Z,9.80
2022-10-30T03:57:28.226Z,9.80
2022-10-30T03:57:51.116Z,9.70
2022-10-30T03:58:13.855Z,9.70
2022-10-30T03:58:36.702Z,9.70
2022-10-30T03:58:59.631Z,9.70
2022-10-30T03:59:22.435Z,9.70
2022-10-30T03:59:45.221Z,9.70
2022-10-30T04:00:10.241Z,9.70
2022-10-30T04:00:33.335Z,9.70
2022-10-30T04:00:56.309Z,9.70
2022-10-30T04:01:19.159Z,9.70
2022-10-30T04:01:42.213Z,9.60
2022-10-30T04:02:05.208Z,9.60
2022-10-30T04:02:28.093Z,9.60
2022-10-30T04:02:51.836Z,9.60
2022-10-30T04:03:14.489Z,9.60
2022-10-30T04:03:37.463Z,9.60
2022-10-30T04:04:00.487Z,9.60
2022-10-30T04:04:23.367Z,9.60
2022-10-30T04:04:46.078Z,9.60
2022-10-30T04:05:09.603Z,9.60
2022-10-30T04:05:32.326Z,9.60
2022-10-30T04:05:56.518Z,9.60
2022-10-30T04:06:19.365Z,9.60
2022-10-30T04:06:42.120Z,9.50
2022-10-30T04:07:04.795Z,9.60
2022-10-30T04:07:27.525Z,9.60
2022-10-30T04:07:54.945Z,9.50
2022-10-30T04:08:18.430Z,9.50
2022-10-30T04:08:41.115Z,9.50
2022-10-30T04:09:06.789Z,9.50
2022-10-30T04:09:29.587Z,9.50
2022-10-30T04:09:52.282Z,9.50
2022-10-30T04:10:19.403Z,9.50
2022-10-30T04:10:45.882Z,9.50
2022-10-30T04:11:11.257Z,9.50
2022-10-30T04:11:34.324Z,9.50
2022-10-30T04:11:57.117Z,9.50
2022-10-30T04:12:19.958Z,9.40
2022-10-30T04:12:42.667Z,9.40
2022-10-30T04:13:06.636Z,9.40
2022-10-30T04:13:29.428Z,9.40
2022-10-30T04:13:52.156Z,9.40
2022-10-30T04:14:14.877Z,9.40
2022-10-30T04:14:37.581Z,9.40
2022-10-30T04:15:00.483Z,9.40
2022-10-30T04:15:23.192Z,9.40
2022-10-30T04:15:49.846Z,9.50
2022-10-30T04:16:15.036Z,9.50
2022-10-30T04:16:37.776Z,9.50
2022-10-30T04:17:00.556Z,9.50
2022-10-30T04:17:23.487Z,9.50
2022-10-30T04:17:50.247Z,9.50
2022-10-30T04:18:14.136Z,9.50
2022-10-30T04:18:36.958Z,9.50
2022-10-30T04:18:59.718Z,9.50
2022-10-30T04:19:22.710Z,9.50
2022-10-30T04:19:45.402Z,9.60
2022-10-30T04:20:09.565Z,9.60
2022-10-30T04:20:32.419Z,9.60
2022-10-30T04:20:56.765Z,9.70
2022-10-30T04:21:19.623Z,9.70
2022-10-30T04:21:43.857Z,9.70
2022-10-30T04:22:06.576Z,9.70
2022-10-30T04:22:29.316Z,9.70
2022-10-30T04:22:56.493Z,9.70
2022-10-30T04:23:20.395Z,9.70
2022-10-30T04:23:43.147Z,9.70
2022-10-30T04:24:06.348Z,9.70
2022-10-30T04:24:29.032Z,9.70
2022-10-30T04:24:51.765Z,9.70
2022-10-30T04:25:14.568Z,9.70
2022-10-30T04:25:38.361Z,9.70
2022-10-30T04:26:01.477Z,9.70
2022-10-30T04:26:24.185Z,9.80
2022-10-30T04:26:47.008Z,9.80
2022-10-30T04:27:09.720Z,9.80
2022-10-30T04:27:32.592Z,9.80
2022-10-30T04:27:55.656Z,9.80
2022-10-30T04:28:18.778Z,9.80
2022-10-30T04:28:41.459Z,9.80
2022-10-30T04:29:04.213Z,9.80
2022-10-30T04:29:26.959Z,9.80
2022-10-30T04:29:49.695Z,9.80
2022-10-30T04:30:12.899Z,9.70
2022-10-30T04:30:36.991Z,9.70
2022-10-30T04:30:59.699Z,9.70
2022-10-30T04:31:22.447Z,9.70
2022-10-30T04:31:45.171Z,9.70
2022-10-30T04:32:08.234Z,9.70
2022-10-30T04:32:31.039Z,9.70
2022-10-30T04:32:55.304Z,9.70
2022-10-30T04:33:18.383Z,9.70
2022-10-30T04:33:41.230Z,9.70
2022-10-30T04:34:04.119Z,9.60
2022-10-30T04:34:26.879Z,9.60
2022-10-30T04:34:53.724Z,9.60
2022-10-30T04:35:17.183Z,9.60
2022-10-30T04:35:40.128Z,9.60
2022-10-30T04:36:04.745Z,9.50
2022-10-30T04:36:33.130Z,9.50
2022-10-30T04:36:55.969Z,9.60
2022-10-30T04:37:18.664Z,9.60
2022-10-30T04:37:41.538Z,9.60
2022-10-30T04:38:04.933Z,9.60
2022-10-30T04:38:28.245Z,9.60
2022-10-30T04:38:51.017Z,9.60
2022-10-30T04:39:13.931Z,9.60
2022-10-30T04:39:38.898Z,9.60
2022-10-30T04:40:04.268Z,9.60
2022-10-30T04:40:27.845Z,9.60
2022-10-30T04:40:50.670Z,9.50
2022-10-30T04:41:13.457Z,9.50
2022-10-30T04:41:36.174Z,9.50
2022-10-30T04:41:58.889Z,9.50
2022-10-30T04:42:21.850Z,9.50
2022-10-30T04:42:47.553Z,9.40
2022-10-30T04:43:11.236Z,9.40
2022-10-30T04:43:33.931Z,9.40
2022-10-30T04:43:56.651Z,9.40
2022-10-30T04:44:19.451Z,9.40
2022-10-30T04:44:42.251Z,9.40
2022-10-30T04:45:11.158Z,9.40
2022-10-30T04:45:38.166Z,9.40
2022-10-30T04:46:05.052Z,9.40
2022-10-30T04:46:27.846Z,9.40
2022-10-30T04:46:50.545Z,9.40
2022-10-30T04:47:13.293Z,9.50
2022-10-30T04:47:36.080Z,9.40
2022-10-30T04:48:02.346Z,9.40
2022-10-30T04:48:25.148Z,9.40
2022-10-30T04:48:47.912Z,9.50
2022-10-30T04:49:10.631Z,9.40
2022-10-30T04:49:33.401Z,9.40
2022-10-30T04:49:56.091Z,9.40
2022-10-30T04:50:18.919Z,9.50
2022-10-30T04:50:41.776Z,9.40
2022-10-30T04:51:06.331Z,9.40
2022-10-30T04:51:29.136Z,9.40
2022-10-30T04:51:51.911Z,9.30
2022-10-30T04:52:14.607Z,9.40
2022-10-30T04:52:37.387Z,9.40
2022-10-30T04:53:01.646Z,9.30
2022-10-30T04:53:24.352Z,9.30
2022-10-30T04:53:47.131Z,9.30
2022-10-30T04:54:09.805Z,9.30
2022-10-30T04:54:32.542Z,9.30
2022-10-30T04:54:55.243Z,9.40
2022-10-30T04:55:18.081Z,9.30
2022-10-30T04:55:41.046Z,9.30
2022-10-30T04:56:03.859Z,9.30
2022-10-30T04:56:26.571Z,9.30
2022-10-30T04:56:49.292Z,9.30
2022-10-30T04:57:12.185Z,9.30
2022-10-30T04:57:36.969Z,9.30
2022-10-30T04:58:00.276Z,9.20
2022-10-30T04:58:23.297Z,9.30
2022-10-30T04:58:47.062Z,9.20
2022-10-30T04:59:09.755Z,9.20
2022-10-30T04:59:32.587Z,9.20
2022-10-30T04:59:55.332Z,9.20
2022-10-30T05:00:18.507Z,9.20
2022-10-30T05:00:41.410Z,9.20
2022-10-30T05:01:05.511Z,9.20
2022-10-30T05:01:28.384Z,9.20
2022-10-30T05:01:51.539Z,9.20
2022-10-30T05:02:14.764Z,9.20
2022-10-30T05:02:37.891Z,9.20
2022-10-30T05:03:01.246Z,9.30
2022-10-30T05:03:24.482Z,9.30
2022-10-30T05:03:49.395Z,9.30
2022-10-30T05:04:14.917Z,9.20
2022-10-30T05:04:37.587Z,9.20
2022-10-30T05:05:00.306Z,9.30
2022-10-30T05:05:23.027Z,9.20
2022-10-30T05:05:45.892Z,9.30
2022-10-30T05:06:16.997Z,9.20
2022-10-30T05:06:39.702Z,9.20
2022-10-30T05:07:04.148Z,9.20
2022-10-30T05:07:26.862Z,9.30
2022-10-30T05:07:49.667Z,9.30
2022-10-30T05:08:12.333Z,9.30
2022-10-30T05:08:34.957Z,9.30
2022-10-30T05:08:58.111Z,9.30
2022-10-30T05:09:20.787Z,9.30
2022-10-30T05:09:43.580Z,9.30
2022-10-30T05:10:07.197Z,9.30
2022-10-30T05:10:29.931Z,9.30
2022-10-30T05:10:52.720Z,9.30
2022-10-30T05:11:15.401Z,9.30
2022-10-30T05:11:38.075Z,9.40
2022-10-30T05:12:00.792Z,9.40
2022-10-30T05:12:23.437Z,9.40
2022-10-30T05:12:46.397Z,9.40
2022-10-30T05:13:10.552Z,9.40
2022-10-30T05:13:33.276Z,9.40
2022-10-30T05:13:56.563Z,9.30